Center, Mississippi
Current Conditions -  °F | °C
As of 5:53 PM on Thursday 18 Dec 2014 (Local Time) from KTUP Reporting Station
Overcast Overcast  
Wind Chill: 44°   Ceiling: 3200
Heat Index: 46°   Visibility: 10mi
Dew Point: 36°   Wind: 5mph
Humidity: 68%   Direction: 50°NE
Pressure: 30.19"   Gusts: NA
Location:  34.4333°N, 88.8629°W
Report Text: KTUP 182353Z 05004KT 10SM OVC032 08/02 A3019 RMK AO2 SLP223 T00780022 10089 20067 53006
Loading
Personal Weather Stations






























Interactive Weather Map New forecast layout! Learn more

10-Day Weather Forecast

Advertisements
Track Severe Weather on mobile